sensor_id;sensor_type;location;lat;lon;timestamp;P1;durP1;ratioP1;P2;durP2;ratioP2
14251;SDS011;7210;51.502;10.722;2023-05-20T00:01:21;4.10;;;3.30;;
14251;SDS011;7210;51.502;10.722;2023-05-20T00:03:48;3.20;;;2.90;;
14251;SDS011;7210;51.502;10.722;2023-05-20T00:06:18;3.80;;;3.30;;
14251;SDS011;7210;51.502;10.722;2023-05-20T00:08:48;4.60;;;3.00;;
14251;SDS011;7210;51.502;10.722;2023-05-20T00:11:16;4.40;;;2.93;;
14251;SDS011;7210;51.502;10.722;2023-05-20T00:13:48;4.37;;;3.27;;
14251;SDS011;7210;51.502;10.722;2023-05-20T00:19:06;3.20;;;3.00;;
14251;SDS011;7210;51.502;10.722;2023-05-20T00:21:34;3.27;;;2.80;;
14251;SDS011;7210;51.502;10.722;2023-05-20T00:24:01;4.30;;;3.40;;
14251;SDS011;7210;51.502;10.722;2023-05-20T00:26:28;4.47;;;2.93;;
14251;SDS011;7210;51.502;10.722;2023-05-20T00:28:56;4.87;;;3.23;;
14251;SDS011;7210;51.502;10.722;2023-05-20T00:31:23;4.33;;;2.90;;
14251;SDS011;7210;51.502;10.722;2023-05-20T00:33:52;3.63;;;3.33;;
14251;SDS011;7210;51.502;10.722;2023-05-20T00:36:19;4.37;;;3.90;;
14251;SDS011;7210;51.502;10.722;2023-05-20T00:41:38;6.73;;;4.30;;
14251;SDS011;7210;51.502;10.722;2023-05-20T00:44:05;4.50;;;3.83;;
14251;SDS011;7210;51.502;10.722;2023-05-20T00:46:33;4.23;;;3.90;;
14251;SDS011;7210;51.502;10.722;2023-05-20T00:49:03;7.47;;;4.10;;
14251;SDS011;7210;51.502;10.722;2023-05-20T00:51:36;4.83;;;4.20;;
14251;SDS011;7210;51.502;10.722;2023-05-20T00:54:04;5.53;;;4.90;;
14251;SDS011;7210;51.502;10.722;2023-05-20T00:56:48;6.70;;;4.20;;
14251;SDS011;7210;51.502;10.722;2023-05-20T00:59:16;5.53;;;4.50;;
14251;SDS011;7210;51.502;10.722;2023-05-20T01:01:44;5.10;;;4.60;;
14251;SDS011;7210;51.502;10.722;2023-05-20T01:04:13;7.17;;;5.13;;
14251;SDS011;7210;51.502;10.722;2023-05-20T01:06:43;5.33;;;4.80;;
14251;SDS011;7210;51.502;10.722;2023-05-20T01:09:12;5.67;;;5.17;;
14251;SDS011;7210;51.502;10.722;2023-05-20T01:11:40;6.27;;;5.67;;
14251;SDS011;7210;51.502;10.722;2023-05-20T01:14:14;6.37;;;5.57;;
14251;SDS011;7210;51.502;10.722;2023-05-20T01:16:48;6.50;;;5.90;;
14251;SDS011;7210;51.502;10.722;2023-05-20T01:19:34;6.93;;;5.47;;
14251;SDS011;7210;51.502;10.722;2023-05-20T01:22:06;7.10;;;6.00;;
14251;SDS011;7210;51.502;10.722;2023-05-20T01:24:44;6.07;;;5.23;;
14251;SDS011;7210;51.502;10.722;2023-05-20T01:27:19;6.20;;;5.60;;
14251;SDS011;7210;51.502;10.722;2023-05-20T01:29:48;6.27;;;5.60;;
14251;SDS011;7210;51.502;10.722;2023-05-20T01:32:19;6.83;;;6.07;;
14251;SDS011;7210;51.502;10.722;2023-05-20T01:34:51;7.03;;;5.27;;
14251;SDS011;7210;51.502;10.722;2023-05-20T01:37:20;6.47;;;5.70;;
14251;SDS011;7210;51.502;10.722;2023-05-20T01:39:51;6.97;;;5.10;;
14251;SDS011;7210;51.502;10.722;2023-05-20T01:42:20;9.30;;;5.30;;
14251;SDS011;7210;51.502;10.722;2023-05-20T01:45:07;6.73;;;5.10;;
14251;SDS011;7210;51.502;10.722;2023-05-20T01:50:16;6.63;;;5.20;;
14251;SDS011;7210;51.502;10.722;2023-05-20T01:52:43;6.40;;;5.30;;
14251;SDS011;7210;51.502;10.722;2023-05-20T01:55:13;8.30;;;6.33;;
14251;SDS011;7210;51.502;10.722;2023-05-20T01:57:41;6.70;;;5.67;;
14251;SDS011;7210;51.502;10.722;2023-05-20T02:00:12;7.10;;;6.10;;
14251;SDS011;7210;51.502;10.722;2023-05-20T02:02:40;6.10;;;5.40;;
14251;SDS011;7210;51.502;10.722;2023-05-20T02:05:10;6.70;;;6.00;;
14251;SDS011;7210;51.502;10.722;2023-05-20T02:07:37;6.17;;;5.57;;
14251;SDS011;7210;51.502;10.722;2023-05-20T02:12:57;6.67;;;6.07;;
14251;SDS011;7210;51.502;10.722;2023-05-20T02:15:24;7.20;;;6.50;;
14251;SDS011;7210;51.502;10.722;2023-05-20T02:17:51;6.83;;;6.07;;
14251;SDS011;7210;51.502;10.722;2023-05-20T02:23:09;6.70;;;6.03;;
14251;SDS011;7210;51.502;10.722;2023-05-20T02:25:36;7.17;;;6.50;;
14251;SDS011;7210;51.502;10.722;2023-05-20T02:28:05;6.47;;;5.87;;
14251;SDS011;7210;51.502;10.722;2023-05-20T02:30:34;6.73;;;6.03;;
14251;SDS011;7210;51.502;10.722;2023-05-20T02:33:02;6.83;;;6.13;;
14251;SDS011;7210;51.502;10.722;2023-05-20T02:35:29;6.93;;;6.03;;
14251;SDS011;7210;51.502;10.722;2023-05-20T02:37:56;8.43;;;6.40;;
14251;SDS011;7210;51.502;10.722;2023-05-20T02:40:23;8.67;;;6.20;;
14251;SDS011;7210;51.502;10.722;2023-05-20T02:42:52;7.13;;;6.43;;
14251;SDS011;7210;51.502;10.722;2023-05-20T02:45:21;7.37;;;6.57;;
14251;SDS011;7210;51.502;10.722;2023-05-20T02:47:48;7.50;;;6.73;;
14251;SDS011;7210;51.502;10.722;2023-05-20T02:50:15;8.07;;;6.67;;
14251;SDS011;7210;51.502;10.722;2023-05-20T02:52:43;7.13;;;6.43;;
14251;SDS011;7210;51.502;10.722;2023-05-20T02:55:11;7.50;;;6.63;;
14251;SDS011;7210;51.502;10.722;2023-05-20T02:57:39;8.40;;;6.40;;
14251;SDS011;7210;51.502;10.722;2023-05-20T03:00:08;7.97;;;7.10;;
14251;SDS011;7210;51.502;10.722;2023-05-20T03:02:39;7.40;;;6.70;;
14251;SDS011;7210;51.502;10.722;2023-05-20T03:05:06;7.47;;;6.23;;
14251;SDS011;7210;51.502;10.722;2023-05-20T03:07:35;7.03;;;6.33;;
14251;SDS011;7210;51.502;10.722;2023-05-20T03:10:05;7.10;;;6.40;;
14251;SDS011;7210;51.502;10.722;2023-05-20T03:12:37;7.63;;;6.30;;
14251;SDS011;7210;51.502;10.722;2023-05-20T03:15:05;8.73;;;6.63;;
14251;SDS011;7210;51.502;10.722;2023-05-20T03:17:35;7.80;;;6.53;;
14251;SDS011;7210;51.502;10.722;2023-05-20T03:20:04;7.53;;;6.73;;
14251;SDS011;7210;51.502;10.722;2023-05-20T03:22:32;7.37;;;6.60;;
14251;SDS011;7210;51.502;10.722;2023-05-20T03:25:00;7.40;;;6.60;;
14251;SDS011;7210;51.502;10.722;2023-05-20T03:27:31;7.60;;;6.20;;
14251;SDS011;7210;51.502;10.722;2023-05-20T03:30:01;7.10;;;6.40;;
14251;SDS011;7210;51.502;10.722;2023-05-20T03:32:31;6.57;;;5.90;;
14251;SDS011;7210;51.502;10.722;2023-05-20T03:34:59;7.47;;;5.93;;
14251;SDS011;7210;51.502;10.722;2023-05-20T03:37:27;6.57;;;6.07;;
14251;SDS011;7210;51.502;10.722;2023-05-20T03:39:56;8.17;;;6.20;;
14251;SDS011;7210;51.502;10.722;2023-05-20T03:42:23;7.10;;;6.40;;
14251;SDS011;7210;51.502;10.722;2023-05-20T03:44:50;13.33;;;6.90;;
14251;SDS011;7210;51.502;10.722;2023-05-20T03:47:19;7.07;;;6.00;;
14251;SDS011;7210;51.502;10.722;2023-05-20T03:49:47;7.73;;;6.23;;
14251;SDS011;7210;51.502;10.722;2023-05-20T03:52:14;8.23;;;6.10;;
14251;SDS011;7210;51.502;10.722;2023-05-20T03:54:43;6.90;;;6.20;;
14251;SDS011;7210;51.502;10.722;2023-05-20T03:57:13;7.33;;;6.63;;
14251;SDS011;7210;51.502;10.722;2023-05-20T03:59:41;9.93;;;6.93;;
14251;SDS011;7210;51.502;10.722;2023-05-20T04:02:08;9.07;;;7.10;;
14251;SDS011;7210;51.502;10.722;2023-05-20T04:04:38;8.50;;;6.17;;
14251;SDS011;7210;51.502;10.722;2023-05-20T04:07:07;7.07;;;6.37;;
14251;SDS011;7210;51.502;10.722;2023-05-20T04:09:35;7.20;;;6.50;;
14251;SDS011;7210;51.502;10.722;2023-05-20T04:12:04;8.20;;;6.27;;
14251;SDS011;7210;51.502;10.722;2023-05-20T04:14:32;8.27;;;6.40;;
14251;SDS011;7210;51.502;10.722;2023-05-20T04:17:01;8.03;;;6.67;;
14251;SDS011;7210;51.502;10.722;2023-05-20T04:19:30;6.97;;;6.17;;
14251;SDS011;7210;51.502;10.722;2023-05-20T04:21:59;6.97;;;6.27;;
14251;SDS011;7210;51.502;10.722;2023-05-20T04:24:26;6.90;;;6.20;;
14251;SDS011;7210;51.502;10.722;2023-05-20T04:26:53;7.90;;;7.17;;
14251;SDS011;7210;51.502;10.722;2023-05-20T04:29:22;7.93;;;6.63;;
14251;SDS011;7210;51.502;10.722;2023-05-20T04:31:49;7.73;;;6.93;;
14251;SDS011;7210;51.502;10.722;2023-05-20T04:34:17;7.07;;;6.37;;
14251;SDS011;7210;51.502;10.722;2023-05-20T04:36:51;7.10;;;6.40;;
14251;SDS011;7210;51.502;10.722;2023-05-20T04:39:18;7.40;;;6.63;;
14251;SDS011;7210;51.502;10.722;2023-05-20T04:41:50;9.07;;;7.47;;
14251;SDS011;7210;51.502;10.722;2023-05-20T04:44:19;10.57;;;7.23;;
14251;SDS011;7210;51.502;10.722;2023-05-20T04:46:48;9.77;;;7.20;;
14251;SDS011;7210;51.502;10.722;2023-05-20T04:49:15;9.10;;;7.93;;
14251;SDS011;7210;51.502;10.722;2023-05-20T04:51:43;7.83;;;7.03;;
14251;SDS011;7210;51.502;10.722;2023-05-20T04:54:11;8.87;;;7.97;;
14251;SDS011;7210;51.502;10.722;2023-05-20T04:56:42;9.03;;;7.87;;
14251;SDS011;7210;51.502;10.722;2023-05-20T04:59:09;9.03;;;7.83;;
14251;SDS011;7210;51.502;10.722;2023-05-20T05:01:43;10.40;;;9.00;;
14251;SDS011;7210;51.502;10.722;2023-05-20T05:04:12;11.97;;;8.87;;
14251;SDS011;7210;51.502;10.722;2023-05-20T05:06:39;10.37;;;9.30;;
14251;SDS011;7210;51.502;10.722;2023-05-20T05:09:08;13.27;;;10.33;;
14251;SDS011;7210;51.502;10.722;2023-05-20T05:11:38;11.40;;;10.07;;
14251;SDS011;7210;51.502;10.722;2023-05-20T05:14:05;12.07;;;10.13;;
14251;SDS011;7210;51.502;10.722;2023-05-20T05:16:34;12.30;;;11.07;;
14251;SDS011;7210;51.502;10.722;2023-05-20T05:19:02;13.23;;;11.93;;
14251;SDS011;7210;51.502;10.722;2023-05-20T05:21:34;11.73;;;10.63;;
14251;SDS011;7210;51.502;10.722;2023-05-20T05:24:07;12.27;;;10.47;;
14251;SDS011;7210;51.502;10.722;2023-05-20T05:26:35;12.70;;;11.50;;
14251;SDS011;7210;51.502;10.722;2023-05-20T05:29:02;12.93;;;11.30;;
14251;SDS011;7210;51.502;10.722;2023-05-20T05:31:29;12.50;;;11.20;;
14251;SDS011;7210;51.502;10.722;2023-05-20T05:33:57;12.20;;;10.93;;
14251;SDS011;7210;51.502;10.722;2023-05-20T05:36:24;11.83;;;10.30;;
14251;SDS011;7210;51.502;10.722;2023-05-20T05:38:52;12.77;;;10.67;;
14251;SDS011;7210;51.502;10.722;2023-05-20T05:41:21;11.73;;;10.37;;
14251;SDS011;7210;51.502;10.722;2023-05-20T05:43:48;11.37;;;10.30;;
14251;SDS011;7210;51.502;10.722;2023-05-20T05:46:15;11.60;;;10.50;;
14251;SDS011;7210;51.502;10.722;2023-05-20T05:48:43;10.47;;;9.57;;
14251;SDS011;7210;51.502;10.722;2023-05-20T05:51:13;11.67;;;10.47;;
14251;SDS011;7210;51.502;10.722;2023-05-20T05:53:40;11.37;;;10.23;;
14251;SDS011;7210;51.502;10.722;2023-05-20T05:56:09;11.27;;;9.67;;
14251;SDS011;7210;51.502;10.722;2023-05-20T05:58:36;10.77;;;9.70;;
14251;SDS011;7210;51.502;10.722;2023-05-20T06:01:07;11.00;;;9.90;;
14251;SDS011;7210;51.502;10.722;2023-05-20T06:03:37;10.83;;;9.73;;
14251;SDS011;7210;51.502;10.722;2023-05-20T06:06:07;10.80;;;9.73;;
14251;SDS011;7210;51.502;10.722;2023-05-20T06:08:37;10.93;;;9.83;;
14251;SDS011;7210;51.502;10.722;2023-05-20T06:11:06;13.07;;;10.90;;
14251;SDS011;7210;51.502;10.722;2023-05-20T06:13:35;11.73;;;10.00;;
14251;SDS011;7210;51.502;10.722;2023-05-20T06:16:03;9.70;;;8.77;;
14251;SDS011;7210;51.502;10.722;2023-05-20T06:18:30;9.87;;;8.97;;
14251;SDS011;7210;51.502;10.722;2023-05-20T06:21:02;12.20;;;9.53;;
14251;SDS011;7210;51.502;10.722;2023-05-20T06:23:29;10.40;;;9.40;;
14251;SDS011;7210;51.502;10.722;2023-05-20T06:26:00;11.10;;;10.00;;
14251;SDS011;7210;51.502;10.722;2023-05-20T06:28:28;10.90;;;9.80;;
14251;SDS011;7210;51.502;10.722;2023-05-20T06:30:57;10.57;;;9.50;;
14251;SDS011;7210;51.502;10.722;2023-05-20T06:33:26;11.73;;;9.40;;
14251;SDS011;7210;51.502;10.722;2023-05-20T06:36:02;11.07;;;9.90;;
14251;SDS011;7210;51.502;10.722;2023-05-20T06:38:29;10.50;;;9.50;;
14251;SDS011;7210;51.502;10.722;2023-05-20T06:40:57;11.17;;;9.90;;
14251;SDS011;7210;51.502;10.722;2023-05-20T06:43:25;10.70;;;9.60;;
14251;SDS011;7210;51.502;10.722;2023-05-20T06:46:04;10.43;;;9.43;;
14251;SDS011;7210;51.502;10.722;2023-05-20T06:48:45;10.77;;;9.77;;
14251;SDS011;7210;51.502;10.722;2023-05-20T06:51:12;10.70;;;9.63;;
14251;SDS011;7210;51.502;10.722;2023-05-20T06:53:39;10.67;;;9.57;;
14251;SDS011;7210;51.502;10.722;2023-05-20T06:56:07;10.93;;;9.57;;
14251;SDS011;7210;51.502;10.722;2023-05-20T06:58:34;12.13;;;9.40;;
14251;SDS011;7210;51.502;10.722;2023-05-20T07:01:01;11.23;;;10.13;;
14251;SDS011;7210;51.502;10.722;2023-05-20T07:03:30;10.60;;;9.00;;
14251;SDS011;7210;51.502;10.722;2023-05-20T07:05:57;10.70;;;9.67;;
14251;SDS011;7210;51.502;10.722;2023-05-20T07:08:25;11.97;;;9.73;;
14251;SDS011;7210;51.502;10.722;2023-05-20T07:10:54;10.70;;;9.70;;
14251;SDS011;7210;51.502;10.722;2023-05-20T07:13:25;11.53;;;10.33;;
14251;SDS011;7210;51.502;10.722;2023-05-20T07:15:53;10.77;;;9.67;;
14251;SDS011;7210;51.502;10.722;2023-05-20T07:18:20;12.53;;;9.53;;
14251;SDS011;7210;51.502;10.722;2023-05-20T07:20:52;11.20;;;10.00;;
14251;SDS011;7210;51.502;10.722;2023-05-20T07:23:37;11.37;;;10.27;;
14251;SDS011;7210;51.502;10.722;2023-05-20T07:26:05;11.30;;;10.13;;
14251;SDS011;7210;51.502;10.722;2023-05-20T07:28:33;11.03;;;9.27;;
14251;SDS011;7210;51.502;10.722;2023-05-20T07:31:01;11.43;;;10.33;;
14251;SDS011;7210;51.502;10.722;2023-05-20T07:33:30;11.43;;;10.33;;
14251;SDS011;7210;51.502;10.722;2023-05-20T07:36:03;11.83;;;10.73;;
14251;SDS011;7210;51.502;10.722;2023-05-20T07:38:31;11.67;;;10.47;;
14251;SDS011;7210;51.502;10.722;2023-05-20T07:41:01;11.90;;;10.80;;
14251;SDS011;7210;51.502;10.722;2023-05-20T07:43:29;12.77;;;11.47;;
14251;SDS011;7210;51.502;10.722;2023-05-20T07:45:57;12.43;;;11.23;;
14251;SDS011;7210;51.502;10.722;2023-05-20T07:48:24;12.17;;;10.60;;
14251;SDS011;7210;51.502;10.722;2023-05-20T07:50:52;12.53;;;11.33;;
14251;SDS011;7210;51.502;10.722;2023-05-20T07:53:23;14.17;;;12.10;;
14251;SDS011;7210;51.502;10.722;2023-05-20T07:55:55;12.10;;;11.00;;
14251;SDS011;7210;51.502;10.722;2023-05-20T07:58:26;12.87;;;11.57;;
14251;SDS011;7210;51.502;10.722;2023-05-20T08:00:53;12.63;;;11.33;;
14251;SDS011;7210;51.502;10.722;2023-05-20T08:03:20;13.03;;;11.30;;
14251;SDS011;7210;51.502;10.722;2023-05-20T08:06:08;12.27;;;11.00;;
14251;SDS011;7210;51.502;10.722;2023-05-20T08:08:37;12.63;;;11.33;;
14251;SDS011;7210;51.502;10.722;2023-05-20T08:11:11;11.67;;;10.57;;
14251;SDS011;7210;51.502;10.722;2023-05-20T08:13:38;12.67;;;11.30;;
14251;SDS011;7210;51.502;10.722;2023-05-20T08:16:07;12.10;;;10.90;;
14251;SDS011;7210;51.502;10.722;2023-05-20T08:18:35;12.43;;;11.13;;
14251;SDS011;7210;51.502;10.722;2023-05-20T08:21:03;12.20;;;10.90;;
14251;SDS011;7210;51.502;10.722;2023-05-20T08:23:32;11.97;;;10.87;;
14251;SDS011;7210;51.502;10.722;2023-05-20T08:26:00;12.60;;;11.43;;
14251;SDS011;7210;51.502;10.722;2023-05-20T08:28:30;12.93;;;11.37;;
14251;SDS011;7210;51.502;10.722;2023-05-20T08:30:59;12.10;;;11.00;;
14251;SDS011;7210;51.502;10.722;2023-05-20T08:33:29;12.63;;;10.90;;
14251;SDS011;7210;51.502;10.722;2023-05-20T08:35:56;12.37;;;11.17;;
14251;SDS011;7210;51.502;10.722;2023-05-20T08:38:23;12.60;;;10.87;;
14251;SDS011;7210;51.502;10.722;2023-05-20T08:40:51;10.97;;;9.97;;
14251;SDS011;7210;51.502;10.722;2023-05-20T08:43:21;12.67;;;11.47;;
14251;SDS011;7210;51.502;10.722;2023-05-20T08:45:49;12.27;;;10.97;;
14251;SDS011;7210;51.502;10.722;2023-05-20T08:48:18;12.40;;;11.10;;
14251;SDS011;7210;51.502;10.722;2023-05-20T08:50:50;12.67;;;11.47;;
14251;SDS011;7210;51.502;10.722;2023-05-20T08:53:18;11.87;;;10.77;;
14251;SDS011;7210;51.502;10.722;2023-05-20T08:55:51;12.80;;;11.50;;
14251;SDS011;7210;51.502;10.722;2023-05-20T08:58:23;11.50;;;10.30;;
14251;SDS011;7210;51.502;10.722;2023-05-20T09:00:52;12.60;;;11.40;;
14251;SDS011;7210;51.502;10.722;2023-05-20T09:03:19;12.33;;;11.07;;
14251;SDS011;7210;51.502;10.722;2023-05-20T09:05:48;12.30;;;11.00;;
14251;SDS011;7210;51.502;10.722;2023-05-20T09:08:15;11.87;;;10.77;;
14251;SDS011;7210;51.502;10.722;2023-05-20T09:10:42;12.27;;;11.07;;
14251;SDS011;7210;51.502;10.722;2023-05-20T09:13:09;14.23;;;11.13;;
14251;SDS011;7210;51.502;10.722;2023-05-20T09:15:39;13.40;;;12.00;;
14251;SDS011;7210;51.502;10.722;2023-05-20T09:18:06;12.33;;;11.03;;
14251;SDS011;7210;51.502;10.722;2023-05-20T09:20:34;11.73;;;10.53;;
14251;SDS011;7210;51.502;10.722;2023-05-20T09:23:08;11.60;;;10.50;;
14251;SDS011;7210;51.502;10.722;2023-05-20T09:25:36;12.43;;;11.23;;
14251;SDS011;7210;51.502;10.722;2023-05-20T09:28:08;13.33;;;10.30;;
14251;SDS011;7210;51.502;10.722;2023-05-20T09:30:36;11.80;;;9.93;;
14251;SDS011;7210;51.502;10.722;2023-05-20T09:33:04;11.27;;;10.13;;
14251;SDS011;7210;51.502;10.722;2023-05-20T09:35:33;10.97;;;9.87;;
14251;SDS011;7210;51.502;10.722;2023-05-20T09:38:03;12.00;;;10.17;;
14251;SDS011;7210;51.502;10.722;2023-05-20T09:40:38;12.07;;;9.63;;
14251;SDS011;7210;51.502;10.722;2023-05-20T09:43:09;11.20;;;10.00;;
14251;SDS011;7210;51.502;10.722;2023-05-20T09:45:38;11.43;;;9.87;;
14251;SDS011;7210;51.502;10.722;2023-05-20T09:48:07;11.87;;;10.67;;
14251;SDS011;7210;51.502;10.722;2023-05-20T09:50:37;11.90;;;10.00;;
14251;SDS011;7210;51.502;10.722;2023-05-20T09:53:06;14.03;;;10.40;;
14251;SDS011;7210;51.502;10.722;2023-05-20T09:55:37;11.40;;;10.10;;
14251;SDS011;7210;51.502;10.722;2023-05-20T09:58:05;12.43;;;10.30;;
14251;SDS011;7210;51.502;10.722;2023-05-20T10:00:36;11.90;;;10.70;;
14251;SDS011;7210;51.502;10.722;2023-05-20T10:03:03;11.00;;;9.80;;
14251;SDS011;7210;51.502;10.722;2023-05-20T10:05:34;12.47;;;9.70;;
14251;SDS011;7210;51.502;10.722;2023-05-20T10:08:14;11.93;;;9.83;;
14251;SDS011;7210;51.502;10.722;2023-05-20T10:11:04;10.23;;;9.17;;
14251;SDS011;7210;51.502;10.722;2023-05-20T10:13:52;10.63;;;9.63;;
14251;SDS011;7210;51.502;10.722;2023-05-20T10:16:49;13.90;;;10.40;;
14251;SDS011;7210;51.502;10.722;2023-05-20T10:19:26;10.50;;;9.37;;
14251;SDS011;7210;51.502;10.722;2023-05-20T10:21:59;11.03;;;9.93;;
14251;SDS011;7210;51.502;10.722;2023-05-20T10:24:29;10.70;;;9.60;;
14251;SDS011;7210;51.502;10.722;2023-05-20T10:26:58;9.80;;;8.90;;
14251;SDS011;7210;51.502;10.722;2023-05-20T10:29:28;10.67;;;9.67;;
14251;SDS011;7210;51.502;10.722;2023-05-20T10:32:02;11.73;;;10.17;;
14251;SDS011;7210;51.502;10.722;2023-05-20T10:34:43;11.80;;;9.60;;
14251;SDS011;7210;51.502;10.722;2023-05-20T10:37:21;10.83;;;9.70;;
14251;SDS011;7210;51.502;10.722;2023-05-20T10:39:50;12.47;;;10.60;;
14251;SDS011;7210;51.502;10.722;2023-05-20T10:42:26;13.33;;;11.23;;
14251;SDS011;7210;51.502;10.722;2023-05-20T10:44:54;12.40;;;11.10;;
14251;SDS011;7210;51.502;10.722;2023-05-20T10:47:21;11.80;;;10.53;;
14251;SDS011;7210;51.502;10.722;2023-05-20T10:49:49;11.50;;;10.40;;
14251;SDS011;7210;51.502;10.722;2023-05-20T10:52:16;11.53;;;10.43;;
14251;SDS011;7210;51.502;10.722;2023-05-20T10:54:46;10.83;;;9.83;;
14251;SDS011;7210;51.502;10.722;2023-05-20T10:57:21;12.70;;;10.67;;
14251;SDS011;7210;51.502;10.722;2023-05-20T10:59:49;13.27;;;10.90;;
14251;SDS011;7210;51.502;10.722;2023-05-20T11:02:17;11.37;;;10.27;;
14251;SDS011;7210;51.502;10.722;2023-05-20T11:04:50;10.60;;;9.50;;
14251;SDS011;7210;51.502;10.722;2023-05-20T11:07:25;10.67;;;9.67;;
14251;SDS011;7210;51.502;10.722;2023-05-20T11:09:54;10.57;;;9.47;;
14251;SDS011;7210;51.502;10.722;2023-05-20T11:12:22;11.70;;;9.60;;
14251;SDS011;7210;51.502;10.722;2023-05-20T11:14:56;9.90;;;9.00;;
14251;SDS011;7210;51.502;10.722;2023-05-20T11:17:23;11.03;;;9.93;;
14251;SDS011;7210;51.502;10.722;2023-05-20T11:19:50;11.07;;;9.97;;
14251;SDS011;7210;51.502;10.722;2023-05-20T11:22:17;10.67;;;9.67;;
14251;SDS011;7210;51.502;10.722;2023-05-20T11:24:44;10.13;;;9.13;;
14251;SDS011;7210;51.502;10.722;2023-05-20T11:27:13;10.07;;;9.10;;
14251;SDS011;7210;51.502;10.722;2023-05-20T11:29:50;10.30;;;9.27;;
14251;SDS011;7210;51.502;10.722;2023-05-20T11:32:18;10.60;;;9.60;;
14251;SDS011;7210;51.502;10.722;2023-05-20T11:34:49;11.20;;;10.20;;
14251;SDS011;7210;51.502;10.722;2023-05-20T11:37:18;10.00;;;9.00;;
14251;SDS011;7210;51.502;10.722;2023-05-20T11:40:01;12.10;;;10.77;;
14251;SDS011;7210;51.502;10.722;2023-05-20T11:42:35;11.73;;;10.63;;
14251;SDS011;7210;51.502;10.722;2023-05-20T11:45:02;11.23;;;10.13;;
14251;SDS011;7210;51.502;10.722;2023-05-20T11:47:30;11.43;;;10.33;;
14251;SDS011;7210;51.502;10.722;2023-05-20T11:49:57;12.00;;;10.80;;
14251;SDS011;7210;51.502;10.722;2023-05-20T11:52:27;12.53;;;10.10;;
14251;SDS011;7210;51.502;10.722;2023-05-20T11:54:54;11.40;;;10.27;;
14251;SDS011;7210;51.502;10.722;2023-05-20T11:57:21;11.53;;;10.40;;
14251;SDS011;7210;51.502;10.722;2023-05-20T11:59:50;11.73;;;10.50;;
14251;SDS011;7210;51.502;10.722;2023-05-20T12:02:18;11.67;;;10.33;;
14251;SDS011;7210;51.502;10.722;2023-05-20T12:04:45;11.77;;;10.57;;
14251;SDS011;7210;51.502;10.722;2023-05-20T12:07:12;11.97;;;10.77;;
14251;SDS011;7210;51.502;10.722;2023-05-20T12:09:39;11.03;;;9.97;;
14251;SDS011;7210;51.502;10.722;2023-05-20T12:12:06;12.83;;;10.43;;
14251;SDS011;7210;51.502;10.722;2023-05-20T12:14:35;12.17;;;10.17;;
14251;SDS011;7210;51.502;10.722;2023-05-20T12:17:04;11.67;;;10.57;;
14251;SDS011;7210;51.502;10.722;2023-05-20T12:19:31;11.33;;;10.23;;
14251;SDS011;7210;51.502;10.722;2023-05-20T12:22:02;13.57;;;10.90;;
14251;SDS011;7210;51.502;10.722;2023-05-20T12:24:29;12.17;;;10.87;;
14251;SDS011;7210;51.502;10.722;2023-05-20T12:26:56;12.87;;;10.87;;
14251;SDS011;7210;51.502;10.722;2023-05-20T12:29:23;12.43;;;11.13;;
14251;SDS011;7210;51.502;10.722;2023-05-20T12:31:50;13.53;;;10.83;;
14251;SDS011;7210;51.502;10.722;2023-05-20T12:34:19;11.80;;;10.60;;
14251;SDS011;7210;51.502;10.722;2023-05-20T12:36:46;12.10;;;10.83;;
14251;SDS011;7210;51.502;10.722;2023-05-20T12:39:13;13.70;;;11.30;;
14251;SDS011;7210;51.502;10.722;2023-05-20T12:41:41;11.90;;;10.80;;
14251;SDS011;7210;51.502;10.722;2023-05-20T12:44:09;11.90;;;10.70;;
14251;SDS011;7210;51.502;10.722;2023-05-20T12:46:36;12.87;;;11.40;;
14251;SDS011;7210;51.502;10.722;2023-05-20T12:49:03;12.83;;;11.07;;
14251;SDS011;7210;51.502;10.722;2023-05-20T12:51:32;15.07;;;12.10;;
14251;SDS011;7210;51.502;10.722;2023-05-20T12:53:59;12.13;;;10.93;;
14251;SDS011;7210;51.502;10.722;2023-05-20T12:56:26;13.53;;;11.70;;
14251;SDS011;7210;51.502;10.722;2023-05-20T12:58:54;12.93;;;11.53;;
14251;SDS011;7210;51.502;10.722;2023-05-20T13:01:22;14.60;;;11.80;;
14251;SDS011;7210;51.502;10.722;2023-05-20T13:03:49;12.93;;;11.70;;
14251;SDS011;7210;51.502;10.722;2023-05-20T13:06:17;13.80;;;11.80;;
14251;SDS011;7210;51.502;10.722;2023-05-20T13:08:46;12.73;;;11.53;;
14251;SDS011;7210;51.502;10.722;2023-05-20T13:11:13;13.73;;;12.43;;
14251;SDS011;7210;51.502;10.722;2023-05-20T13:13:40;13.37;;;12.07;;
14251;SDS011;7210;51.502;10.722;2023-05-20T13:16:07;13.13;;;11.83;;
14251;SDS011;7210;51.502;10.722;2023-05-20T13:18:36;13.10;;;11.70;;
14251;SDS011;7210;51.502;10.722;2023-05-20T13:21:03;17.70;;;15.80;;
14251;SDS011;7210;51.502;10.722;2023-05-20T13:23:30;15.80;;;14.13;;
14251;SDS011;7210;51.502;10.722;2023-05-20T13:25:59;15.00;;;12.63;;
14251;SDS011;7210;51.502;10.722;2023-05-20T13:28:26;13.93;;;12.53;;
14251;SDS011;7210;51.502;10.722;2023-05-20T13:30:53;13.90;;;12.50;;
14251;SDS011;7210;51.502;10.722;2023-05-20T13:33:20;14.30;;;12.57;;
14251;SDS011;7210;51.502;10.722;2023-05-20T13:35:48;14.67;;;13.13;;
14251;SDS011;7210;51.502;10.722;2023-05-20T13:38:15;13.20;;;11.90;;
14251;SDS011;7210;51.502;10.722;2023-05-20T13:40:43;13.80;;;12.40;;
14251;SDS011;7210;51.502;10.722;2023-05-20T13:43:11;14.33;;;12.93;;
14251;SDS011;7210;51.502;10.722;2023-05-20T13:45:38;14.00;;;12.70;;
14251;SDS011;7210;51.502;10.722;2023-05-20T13:48:05;14.10;;;12.57;;
14251;SDS011;7210;51.502;10.722;2023-05-20T13:50:33;15.00;;;12.87;;
14251;SDS011;7210;51.502;10.722;2023-05-20T13:53:02;13.33;;;12.03;;
14251;SDS011;7210;51.502;10.722;2023-05-20T13:55:32;13.43;;;12.13;;
14251;SDS011;7210;51.502;10.722;2023-05-20T13:57:59;13.90;;;12.37;;
14251;SDS011;7210;51.502;10.722;2023-05-20T14:00:33;14.40;;;12.90;;
14251;SDS011;7210;51.502;10.722;2023-05-20T14:03:01;14.50;;;13.00;;
14251;SDS011;7210;51.502;10.722;2023-05-20T14:05:32;14.10;;;12.70;;
14251;SDS011;7210;51.502;10.722;2023-05-20T14:07:59;15.97;;;13.30;;
14251;SDS011;7210;51.502;10.722;2023-05-20T14:10:27;14.70;;;13.17;;
14251;SDS011;7210;51.502;10.722;2023-05-20T14:12:55;15.07;;;13.30;;
14251;SDS011;7210;51.502;10.722;2023-05-20T14:15:26;14.07;;;12.67;;
14251;SDS011;7210;51.502;10.722;2023-05-20T14:17:56;15.00;;;13.33;;
14251;SDS011;7210;51.502;10.722;2023-05-20T14:20:23;14.63;;;13.10;;
14251;SDS011;7210;51.502;10.722;2023-05-20T14:22:51;13.27;;;12.03;;
14251;SDS011;7210;51.502;10.722;2023-05-20T14:25:18;14.40;;;12.17;;
14251;SDS011;7210;51.502;10.722;2023-05-20T14:27:45;13.47;;;12.00;;
14251;SDS011;7210;51.502;10.722;2023-05-20T14:30:13;14.40;;;12.97;;
14251;SDS011;7210;51.502;10.722;2023-05-20T14:32:40;14.77;;;12.33;;
14251;SDS011;7210;51.502;10.722;2023-05-20T14:35:08;13.30;;;11.93;;
14251;SDS011;7210;51.502;10.722;2023-05-20T14:37:36;14.63;;;12.13;;
14251;SDS011;7210;51.502;10.722;2023-05-20T14:40:03;13.93;;;12.40;;
14251;SDS011;7210;51.502;10.722;2023-05-20T14:42:32;13.47;;;11.40;;
14251;SDS011;7210;51.502;10.722;2023-05-20T14:44:59;14.17;;;12.87;;
14251;SDS011;7210;51.502;10.722;2023-05-20T14:47:32;13.40;;;12.00;;
14251;SDS011;7210;51.502;10.722;2023-05-20T14:49:59;13.63;;;11.53;;
14251;SDS011;7210;51.502;10.722;2023-05-20T14:52:28;13.03;;;11.67;;
14251;SDS011;7210;51.502;10.722;2023-05-20T14:54:55;13.43;;;12.03;;
14251;SDS011;7210;51.502;10.722;2023-05-20T14:57:22;12.90;;;11.53;;
14251;SDS011;7210;51.502;10.722;2023-05-20T14:59:49;13.50;;;12.10;;